createdAt,value
2018-09-24T00:02:02.112Z,99.90
2018-09-24T00:04:29.674Z,99.90
2018-09-24T00:06:57.211Z,99.90
2018-09-24T00:09:24.727Z,99.90
2018-09-24T00:11:52.276Z,99.90
2018-09-24T00:14:19.880Z,99.90
2018-09-24T00:16:47.364Z,99.90
2018-09-24T00:19:14.859Z,99.90
2018-09-24T00:21:42.405Z,99.90
2018-09-24T00:24:09.913Z,99.90
2018-09-24T00:26:37.447Z,99.90
2018-09-24T00:29:05.088Z,99.90
2018-09-24T00:31:32.618Z,99.90
2018-09-24T00:34:00.126Z,99.90
2018-09-24T00:36:27.645Z,99.90
2018-09-24T00:38:55.202Z,99.90
2018-09-24T00:41:22.717Z,99.90
2018-09-24T00:43:50.250Z,99.90
2018-09-24T00:46:17.847Z,99.90
2018-09-24T00:48:45.376Z,99.90
2018-09-24T00:51:12.904Z,99.90
2018-09-24T00:53:40.461Z,99.90
2018-09-24T00:56:08.004Z,99.90
2018-09-24T00:58:35.520Z,99.90
2018-09-24T01:01:03.052Z,99.90
2018-09-24T01:03:30.557Z,99.90
2018-09-24T01:05:58.073Z,99.90
2018-09-24T01:08:25.634Z,99.90
2018-09-24T01:10:53.144Z,99.90
2018-09-24T01:13:20.637Z,99.90
2018-09-24T01:15:48.210Z,99.90
2018-09-24T01:18:15.764Z,99.90
2018-09-24T01:20:43.288Z,99.90
2018-09-24T01:23:10.811Z,99.90
2018-09-24T01:25:38.354Z,99.90
2018-09-24T01:28:05.852Z,99.90
2018-09-24T01:30:33.366Z,99.90
2018-09-24T01:33:00.944Z,99.90
2018-09-24T01:35:28.491Z,99.90
2018-09-24T01:37:56.095Z,99.90
2018-09-24T01:40:23.588Z,99.90
2018-09-24T01:42:51.098Z,99.90
2018-09-24T01:45:18.642Z,99.90
2018-09-24T01:47:46.150Z,99.90
2018-09-24T01:50:13.665Z,99.90
2018-09-24T01:52:41.241Z,99.90
2018-09-24T01:55:08.784Z,99.90
2018-09-24T01:57:36.294Z,99.90
2018-09-24T02:00:03.986Z,99.90
2018-09-24T02:02:31.499Z,99.90
2018-09-24T02:04:59.006Z,99.90
2018-09-24T02:07:26.578Z,99.90
2018-09-24T02:09:54.148Z,99.90
2018-09-24T02:12:21.658Z,99.90
2018-09-24T02:14:49.198Z,99.90
2018-09-24T02:17:21.145Z,99.90
2018-09-24T02:19:49.517Z,99.90
2018-09-24T02:22:23.666Z,99.90
2018-09-24T02:24:51.189Z,99.90
2018-09-24T02:27:18.718Z,99.90
2018-09-24T02:29:46.259Z,99.90
2018-09-24T02:32:13.833Z,99.90
2018-09-24T02:34:41.377Z,99.90
2018-09-24T02:37:09.300Z,99.90
2018-09-24T02:39:36.824Z,99.90
2018-09-24T02:42:04.353Z,99.90
2018-09-24T02:44:31.865Z,99.90
2018-09-24T02:46:59.439Z,99.90
2018-09-24T02:49:27.149Z,99.90
2018-09-24T02:51:56.990Z,99.90
2018-09-24T02:54:24.505Z,99.90
2018-09-24T02:56:52.055Z,99.90
2018-09-24T02:59:19.694Z,99.90
2018-09-24T03:01:47.235Z,99.90
2018-09-24T03:04:14.744Z,99.90
2018-09-24T03:06:42.260Z,99.90
2018-09-24T03:09:16.358Z,99.90
2018-09-24T03:11:44.255Z,99.90
2018-09-24T03:14:11.842Z,99.90
2018-09-24T03:16:39.400Z,99.90
2018-09-24T03:19:06.925Z,99.90
2018-09-24T03:21:34.535Z,99.90
2018-09-24T03:24:02.160Z,99.90
2018-09-24T03:26:29.678Z,99.90
2018-09-24T03:28:57.176Z,99.90
2018-09-24T03:31:24.713Z,99.90
2018-09-24T03:33:52.226Z,99.90
2018-09-24T03:36:19.745Z,99.90
2018-09-24T03:38:47.310Z,99.90
2018-09-24T03:41:14.820Z,99.90
2018-09-24T03:43:42.359Z,99.90
2018-09-24T03:46:09.918Z,99.90
2018-09-24T03:48:37.448Z,99.90
2018-09-24T03:51:05.035Z,99.90
2018-09-24T03:53:32.581Z,99.90
2018-09-24T03:56:00.165Z,99.90
2018-09-24T03:58:27.684Z,99.90
2018-09-24T04:00:55.225Z,99.90
2018-09-24T04:03:22.739Z,99.90
2018-09-24T04:05:55.835Z,99.90
2018-09-24T04:08:29.071Z,99.90
2018-09-24T04:11:02.289Z,99.90
2018-09-24T04:13:35.455Z,99.90
2018-09-24T04:16:08.613Z,99.90
2018-09-24T04:18:41.812Z,99.90
2018-09-24T04:21:14.958Z,99.90
2018-09-24T04:23:48.075Z,99.90
2018-09-24T04:26:21.307Z,99.90
2018-09-24T04:28:54.529Z,99.90
2018-09-24T04:31:27.714Z,99.90
2018-09-24T04:34:00.947Z,99.90
2018-09-24T04:36:34.183Z,99.90
2018-09-24T04:39:07.365Z,99.90
2018-09-24T04:41:40.493Z,99.90
2018-09-24T04:44:13.689Z,99.90
2018-09-24T04:46:46.941Z,99.90
2018-09-24T04:49:20.216Z,99.90
2018-09-24T04:51:53.286Z,99.90
2018-09-24T04:54:26.619Z,99.90
2018-09-24T04:56:59.891Z,99.90
2018-09-24T04:59:33.074Z,99.90
2018-09-24T05:02:06.230Z,99.90
2018-09-24T05:04:39.409Z,99.90
2018-09-24T05:07:12.549Z,99.90
2018-09-24T05:09:45.717Z,99.90
2018-09-24T05:12:18.930Z,99.90
2018-09-24T05:14:52.106Z,99.90
2018-09-24T05:17:25.280Z,99.90
2018-09-24T05:19:58.610Z,99.90
2018-09-24T05:22:31.760Z,99.90
2018-09-24T05:25:04.949Z,99.90
2018-09-24T05:27:41.990Z,99.90
2018-09-24T05:30:15.264Z,99.90
2018-09-24T05:32:48.452Z,99.90
2018-09-24T05:35:21.672Z,99.90
2018-09-24T05:37:54.865Z,99.90
2018-09-24T05:40:27.989Z,99.90
2018-09-24T05:43:01.072Z,99.90
2018-09-24T05:45:34.202Z,99.90
2018-09-24T05:48:07.429Z,99.90
2018-09-24T05:50:40.647Z,99.90
2018-09-24T05:53:13.890Z,99.90
2018-09-24T05:55:47.133Z,99.90
2018-09-24T05:58:20.394Z,99.90
2018-09-24T06:00:53.565Z,99.90
2018-09-24T06:03:26.790Z,99.90
2018-09-24T06:05:59.966Z,99.90
2018-09-24T06:08:33.142Z,99.90
2018-09-24T06:11:06.348Z,99.90
2018-09-24T06:13:39.621Z,99.90
2018-09-24T06:16:12.764Z,99.90
2018-09-24T06:18:45.894Z,99.90
2018-09-24T06:21:19.093Z,99.90
2018-09-24T06:23:52.262Z,99.90
2018-09-24T06:26:25.549Z,99.90
2018-09-24T06:28:58.641Z,99.90
2018-09-24T06:31:31.905Z,99.90
2018-09-24T06:34:05.095Z,99.90
2018-09-24T06:36:38.321Z,99.90
2018-09-24T06:39:13.309Z,99.90
2018-09-24T06:41:46.585Z,99.90
2018-09-24T06:44:19.838Z,99.90
2018-09-24T06:46:53.130Z,99.90
2018-09-24T06:49:26.335Z,99.90
2018-09-24T06:51:59.485Z,99.90
2018-09-24T06:54:32.672Z,99.90
2018-09-24T06:57:05.873Z,99.90
2018-09-24T06:59:39.039Z,99.90
2018-09-24T07:02:12.222Z,99.90
2018-09-24T07:04:45.411Z,99.90
2018-09-24T07:07:18.672Z,99.90
2018-09-24T07:09:51.710Z,99.90
2018-09-24T07:12:24.901Z,99.90
2018-09-24T07:14:58.153Z,99.90
2018-09-24T07:17:31.407Z,99.90
2018-09-24T07:20:04.639Z,99.90
2018-09-24T07:22:37.847Z,99.90
2018-09-24T07:25:11.045Z,99.90
2018-09-24T07:27:44.314Z,99.90
2018-09-24T07:30:17.747Z,99.90
2018-09-24T07:32:50.915Z,99.90
2018-09-24T07:35:24.138Z,99.90
2018-09-24T07:37:57.374Z,99.90
2018-09-24T07:40:30.591Z,99.90
2018-09-24T07:43:03.839Z,99.90
2018-09-24T07:45:36.901Z,99.90
2018-09-24T07:48:10.129Z,99.90
2018-09-24T07:50:43.357Z,99.90
2018-09-24T07:53:16.594Z,99.90
2018-09-24T07:55:49.796Z,99.90
2018-09-24T07:58:23.047Z,99.90
2018-09-24T08:00:56.261Z,99.90
2018-09-24T08:03:29.486Z,99.90
2018-09-24T08:06:02.681Z,99.90
2018-09-24T08:08:35.926Z,99.90
2018-09-24T08:11:09.163Z,99.90
2018-09-24T08:13:42.387Z,99.90
2018-09-24T08:16:15.521Z,99.90
2018-09-24T08:18:48.758Z,99.90
2018-09-24T08:21:22.005Z,99.90
2018-09-24T08:23:55.230Z,99.90
2018-09-24T08:26:28.415Z,99.90
2018-09-24T08:29:01.698Z,99.90
2018-09-24T08:31:34.827Z,99.90
2018-09-24T08:34:08.073Z,99.90
2018-09-24T08:36:41.041Z,99.90
2018-09-24T08:39:14.322Z,99.90
2018-09-24T08:41:47.515Z,99.90
2018-09-24T08:44:20.713Z,99.90
2018-09-24T08:46:53.875Z,99.90
2018-09-24T08:49:27.209Z,99.90
2018-09-24T08:52:00.405Z,99.90
2018-09-24T08:54:33.621Z,99.90
2018-09-24T08:57:07.062Z,99.90
2018-09-24T08:59:40.281Z,99.90
2018-09-24T09:02:13.451Z,99.90
2018-09-24T09:04:46.737Z,99.90
2018-09-24T09:07:19.947Z,99.90
2018-09-24T09:09:53.228Z,99.90
2018-09-24T09:12:26.341Z,99.90
2018-09-24T09:14:59.559Z,99.90
2018-09-24T09:17:32.778Z,99.90
2018-09-24T09:20:06.040Z,99.90
2018-09-24T09:22:39.206Z,99.90
2018-09-24T09:25:12.409Z,99.90
2018-09-24T09:27:45.604Z,99.90
2018-09-24T09:30:18.807Z,99.90
2018-09-24T09:32:52.029Z,99.90
2018-09-24T09:35:25.221Z,99.90
2018-09-24T09:37:58.407Z,99.90
2018-09-24T09:40:31.623Z,99.90
2018-09-24T09:43:04.822Z,99.90
2018-09-24T09:45:38.065Z,99.90
2018-09-24T09:48:11.288Z,99.90
2018-09-24T09:50:44.545Z,99.90
2018-09-24T09:53:17.724Z,99.90
2018-09-24T09:55:50.938Z,99.90
2018-09-24T09:58:24.084Z,99.90
2018-09-24T10:00:57.420Z,99.90
2018-09-24T10:03:30.667Z,99.90
2018-09-24T10:06:03.971Z,99.90
2018-09-24T10:08:37.170Z,99.90
2018-09-24T10:11:10.515Z,99.90
2018-09-24T10:13:43.826Z,99.90
2018-09-24T10:16:17.072Z,99.90
2018-09-24T10:18:50.925Z,99.90
2018-09-24T10:21:31.130Z,99.90
2018-09-24T10:24:04.383Z,99.90
2018-09-24T10:26:37.650Z,99.90
2018-09-24T10:29:10.804Z,99.90
2018-09-24T10:31:44.048Z,99.90
2018-09-24T10:34:17.306Z,99.90
2018-09-24T10:36:50.554Z,99.90
2018-09-24T10:39:23.813Z,99.90
2018-09-24T10:41:57.058Z,99.90
2018-09-24T10:44:30.300Z,99.90
2018-09-24T10:47:03.502Z,99.90
2018-09-24T10:49:36.656Z,99.90
2018-09-24T10:52:09.809Z,99.90
2018-09-24T10:54:43.052Z,99.90
2018-09-24T10:57:16.333Z,99.90
2018-09-24T10:59:49.479Z,99.90
2018-09-24T11:02:22.621Z,99.90
2018-09-24T11:04:55.828Z,99.90
2018-09-24T11:07:29.110Z,99.90
2018-09-24T11:10:02.388Z,99.90
2018-09-24T11:12:35.650Z,99.90
2018-09-24T11:15:08.750Z,99.90
2018-09-24T11:17:42.213Z,99.90
2018-09-24T11:20:15.363Z,99.90
2018-09-24T11:22:48.591Z,99.90
2018-09-24T11:25:21.854Z,99.90
2018-09-24T11:27:55.080Z,99.90
2018-09-24T11:30:28.332Z,99.90
2018-09-24T11:33:01.572Z,99.90
2018-09-24T11:35:34.827Z,99.90
2018-09-24T11:38:08.098Z,99.90
2018-09-24T11:40:41.345Z,99.90
2018-09-24T11:43:14.468Z,99.90
2018-09-24T11:45:47.802Z,99.90
2018-09-24T11:48:21.092Z,99.90
2018-09-24T11:50:54.360Z,99.90
2018-09-24T11:53:27.524Z,99.90
2018-09-24T11:56:00.631Z,99.90
2018-09-24T11:58:33.866Z,99.90
2018-09-24T12:01:07.124Z,99.90
2018-09-24T12:03:40.409Z,99.90
2018-09-24T12:06:13.519Z,99.90
2018-09-24T12:08:46.802Z,99.90
2018-09-24T12:11:19.902Z,99.90
2018-09-24T12:13:53.050Z,99.90
2018-09-24T12:16:26.288Z,99.90
2018-09-24T12:18:59.554Z,99.90
2018-09-24T12:21:32.790Z,99.90
2018-09-24T12:24:06.092Z,99.90
2018-09-24T12:26:39.256Z,99.90
2018-09-24T12:29:12.542Z,99.90
2018-09-24T12:31:45.719Z,99.90
2018-09-24T12:34:18.995Z,99.90
2018-09-24T12:36:52.161Z,99.90
2018-09-24T12:39:25.551Z,99.90
2018-09-24T12:41:58.697Z,99.90
2018-09-24T12:44:31.888Z,99.90
2018-09-24T12:47:05.199Z,99.90
2018-09-24T12:49:38.509Z,99.90
2018-09-24T12:52:11.746Z,99.90
2018-09-24T12:54:44.947Z,99.90
2018-09-24T12:57:18.133Z,99.90
2018-09-24T12:59:51.425Z,99.90
2018-09-24T13:02:24.621Z,99.90
2018-09-24T13:04:57.858Z,99.90
2018-09-24T13:07:31.096Z,99.90
2018-09-24T13:10:04.382Z,99.90
2018-09-24T13:12:37.734Z,99.90
2018-09-24T13:15:11.005Z,99.90
2018-09-24T13:17:44.289Z,99.90
2018-09-24T13:20:17.518Z,99.90
2018-09-24T13:22:50.843Z,99.90
2018-09-24T13:25:24.108Z,99.90
2018-09-24T13:27:57.343Z,99.90
2018-09-24T13:30:30.497Z,99.90
2018-09-24T13:33:03.859Z,99.90
2018-09-24T13:35:37.098Z,99.90
2018-09-24T13:38:10.205Z,99.90
2018-09-24T13:40:43.451Z,99.90
2018-09-24T13:43:16.768Z,99.90
2018-09-24T13:45:50.000Z,99.90
2018-09-24T13:48:23.306Z,99.90
2018-09-24T13:50:56.559Z,99.90
2018-09-24T13:53:29.761Z,99.90
2018-09-24T13:56:02.948Z,99.90
2018-09-24T13:58:36.063Z,99.90
2018-09-24T14:01:09.447Z,99.90
2018-09-24T14:03:42.605Z,99.90
2018-09-24T14:06:15.850Z,99.90
2018-09-24T14:08:49.092Z,99.90
2018-09-24T14:11:22.358Z,99.90
2018-09-24T14:13:55.599Z,99.90
2018-09-24T14:16:28.879Z,99.90
2018-09-24T14:19:01.941Z,99.90
2018-09-24T14:21:35.157Z,99.90
2018-09-24T14:24:08.335Z,99.90
2018-09-24T14:26:41.887Z,99.90
2018-09-24T14:29:15.137Z,99.90
2018-09-24T14:31:48.455Z,99.90
2018-09-24T14:34:21.714Z,99.90
2018-09-24T14:36:54.922Z,99.90
2018-09-24T14:39:28.144Z,99.90
2018-09-24T14:42:01.424Z,99.90
2018-09-24T14:44:34.497Z,99.90
2018-09-24T14:47:07.718Z,99.90
2018-09-24T14:49:40.910Z,99.90
2018-09-24T14:52:14.181Z,99.90
2018-09-24T14:54:47.451Z,99.90
2018-09-24T14:57:20.681Z,99.90
2018-09-24T14:59:53.974Z,99.90
2018-09-24T15:02:27.301Z,99.90
2018-09-24T15:05:00.454Z,99.90
2018-09-24T15:07:33.800Z,99.90
2018-09-24T15:10:07.040Z,99.90
2018-09-24T15:12:40.271Z,99.90
2018-09-24T15:15:13.402Z,99.90
2018-09-24T15:17:46.776Z,98.10
2018-09-24T15:20:20.716Z,92.10
2018-09-24T15:22:54.081Z,94.80
2018-09-24T15:25:27.273Z,96.80
2018-09-24T15:28:00.634Z,96.00
2018-09-24T15:30:33.709Z,95.20
2018-09-24T15:33:06.885Z,95.90
2018-09-24T15:35:40.121Z,96.20
2018-09-24T15:38:13.368Z,95.80
2018-09-24T15:40:46.510Z,93.20
2018-09-24T15:43:19.730Z,96.30
2018-09-24T15:45:53.035Z,96.10
2018-09-24T15:48:26.305Z,95.90
2018-09-24T15:50:59.502Z,96.30
2018-09-24T15:53:32.682Z,96.20
2018-09-24T15:56:05.870Z,95.80
2018-09-24T15:58:39.103Z,94.30
2018-09-24T16:01:12.169Z,94.00
2018-09-24T16:03:45.391Z,92.30
2018-09-24T16:06:18.645Z,93.80
2018-09-24T16:08:51.935Z,93.00
2018-09-24T16:11:25.099Z,92.00
2018-09-24T16:13:58.405Z,91.20
2018-09-24T16:16:31.618Z,91.00
2018-09-24T16:19:04.873Z,81.90
2018-09-24T16:21:37.999Z,90.50
2018-09-24T16:24:11.210Z,90.50
2018-09-24T16:26:44.436Z,90.30
2018-09-24T16:29:17.691Z,90.30
2018-09-24T16:31:50.800Z,91.30
2018-09-24T16:34:24.046Z,91.30
2018-09-24T16:36:57.100Z,91.10
2018-09-24T16:39:30.368Z,91.10
2018-09-24T16:42:03.477Z,91.00
2018-09-24T16:44:36.742Z,91.10
2018-09-24T16:47:10.101Z,91.10
2018-09-24T16:49:43.424Z,91.40
2018-09-24T16:52:16.463Z,91.60
2018-09-24T16:54:49.721Z,92.20
2018-09-24T16:57:22.962Z,92.70
2018-09-24T16:59:56.154Z,93.40
2018-09-24T17:02:29.318Z,94.10
2018-09-24T17:05:02.608Z,94.90
2018-09-24T17:07:35.808Z,95.40
2018-09-24T17:10:09.030Z,96.20
2018-09-24T17:12:42.091Z,96.90
2018-09-24T17:15:15.360Z,97.70
2018-09-24T17:17:48.576Z,98.10
2018-09-24T17:20:21.856Z,98.60
2018-09-24T17:22:55.145Z,99.00
2018-09-24T17:25:28.469Z,99.80
2018-09-24T17:28:01.915Z,99.90
2018-09-24T17:30:35.241Z,99.90
2018-09-24T17:33:08.303Z,99.90
2018-09-24T17:35:41.534Z,99.90
2018-09-24T17:38:14.682Z,99.90
2018-09-24T17:40:47.901Z,99.90
2018-09-24T17:43:21.125Z,99.90
2018-09-24T17:45:54.407Z,99.90
2018-09-24T17:48:27.660Z,99.90
2018-09-24T17:51:00.969Z,99.90
2018-09-24T17:53:34.228Z,99.90
2018-09-24T17:56:07.457Z,99.90
2018-09-24T17:58:40.683Z,99.90
2018-09-24T18:01:13.972Z,99.90
2018-09-24T18:03:47.197Z,99.90
2018-09-24T18:06:20.523Z,99.90
2018-09-24T18:08:53.819Z,99.90
2018-09-24T18:11:27.151Z,99.90
2018-09-24T18:14:00.306Z,99.90
2018-09-24T18:16:33.526Z,99.90
2018-09-24T18:19:06.757Z,99.90
2018-09-24T18:21:40.026Z,99.90
2018-09-24T18:24:13.229Z,99.90
2018-09-24T18:26:46.489Z,99.90
2018-09-24T18:29:19.699Z,99.90
2018-09-24T18:31:52.981Z,99.90
2018-09-24T18:34:26.097Z,99.90
2018-09-24T18:36:59.407Z,99.90
2018-09-24T18:39:32.596Z,99.90
2018-09-24T18:42:05.811Z,99.90
2018-09-24T18:44:38.909Z,99.90
2018-09-24T18:47:12.159Z,99.90
2018-09-24T18:49:45.454Z,99.90
2018-09-24T18:52:18.659Z,99.90
2018-09-24T18:54:51.857Z,99.90
2018-09-24T18:57:25.091Z,99.90
2018-09-24T18:59:58.211Z,99.90
2018-09-24T19:02:31.497Z,99.90
2018-09-24T19:05:04.656Z,99.90
2018-09-24T19:07:37.820Z,99.90
2018-09-24T19:10:11.006Z,99.90
2018-09-24T19:12:44.231Z,99.90
2018-09-24T19:15:17.457Z,99.90
2018-09-24T19:17:50.750Z,99.90
2018-09-24T19:20:24.017Z,99.90
2018-09-24T19:22:57.311Z,99.90
2018-09-24T19:25:30.450Z,99.90
2018-09-24T19:28:03.663Z,99.90
2018-09-24T19:30:36.918Z,99.90
2018-09-24T19:33:10.618Z,99.90
2018-09-24T19:35:43.946Z,99.90
2018-09-24T19:38:17.111Z,99.90
2018-09-24T19:40:50.535Z,99.90
2018-09-24T19:43:23.952Z,99.90
2018-09-24T19:45:57.251Z,99.90
2018-09-24T19:48:30.552Z,99.90
2018-09-24T19:51:03.797Z,99.90
2018-09-24T19:53:37.056Z,99.90
2018-09-24T19:56:10.258Z,99.90
2018-09-24T19:58:43.522Z,99.90
2018-09-24T20:01:16.801Z,99.90
2018-09-24T20:03:50.028Z,99.90
2018-09-24T20:06:23.145Z,99.90
2018-09-24T20:08:56.408Z,99.90
2018-09-24T20:11:29.699Z,99.90
2018-09-24T20:14:02.972Z,99.90
2018-09-24T20:16:36.291Z,99.90
2018-09-24T20:19:09.486Z,99.90
2018-09-24T20:21:42.886Z,99.90
2018-09-24T20:24:16.160Z,99.90
2018-09-24T20:26:49.356Z,99.90
2018-09-24T20:29:22.596Z,99.90
2018-09-24T20:31:55.820Z,99.90
2018-09-24T20:34:29.145Z,99.90
2018-09-24T20:37:02.289Z,99.90
2018-09-24T20:39:35.506Z,99.90
2018-09-24T20:42:08.748Z,99.90
2018-09-24T20:44:41.848Z,99.90
2018-09-24T20:47:15.054Z,99.90
2018-09-24T20:49:48.476Z,99.90
2018-09-24T20:52:21.718Z,99.90
2018-09-24T20:54:55.077Z,99.90
2018-09-24T20:57:28.268Z,99.90
2018-09-24T21:00:01.655Z,99.90
2018-09-24T21:02:34.985Z,99.90
2018-09-24T21:05:08.382Z,99.90
2018-09-24T21:07:41.784Z,99.90
2018-09-24T21:10:15.009Z,99.90
2018-09-24T21:12:48.254Z,99.90
2018-09-24T21:15:21.570Z,99.90
2018-09-24T21:17:54.808Z,99.90
2018-09-24T21:20:28.016Z,99.90
2018-09-24T21:23:01.343Z,99.90
2018-09-24T21:25:34.664Z,99.90
2018-09-24T21:28:07.742Z,99.90
2018-09-24T21:30:40.852Z,99.90
2018-09-24T21:33:14.192Z,99.90
2018-09-24T21:35:47.511Z,99.90
2018-09-24T21:38:20.778Z,99.90
2018-09-24T21:40:53.998Z,99.90
2018-09-24T21:43:27.195Z,99.90
2018-09-24T21:46:00.510Z,99.90
2018-09-24T21:48:33.622Z,99.90
2018-09-24T21:51:06.981Z,99.90
2018-09-24T21:53:40.130Z,99.90
2018-09-24T21:56:13.399Z,99.90
2018-09-24T21:58:46.716Z,99.90
2018-09-24T22:01:20.038Z,99.90
2018-09-24T22:03:53.134Z,99.90
2018-09-24T22:06:26.362Z,99.90
2018-09-24T22:08:59.521Z,99.90
2018-09-24T22:11:32.775Z,99.90
2018-09-24T22:14:05.878Z,99.90
2018-09-24T22:16:39.085Z,99.90
2018-09-24T22:19:12.377Z,99.90
2018-09-24T22:21:45.618Z,99.90
2018-09-24T22:24:18.718Z,99.90
2018-09-24T22:26:51.962Z,99.90
2018-09-24T22:29:25.221Z,99.90
2018-09-24T22:31:58.464Z,99.90
2018-09-24T22:34:31.466Z,99.90
2018-09-24T22:37:04.647Z,99.90
2018-09-24T22:39:37.838Z,99.90
2018-09-24T22:44:50.828Z,99.90
2018-09-24T22:47:23.994Z,99.90
2018-09-24T22:49:57.152Z,99.90
2018-09-24T22:52:30.456Z,99.90
2018-09-24T22:55:03.704Z,99.90
2018-09-24T22:57:36.896Z,99.90
2018-09-24T23:00:10.231Z,99.90
2018-09-24T23:02:43.490Z,99.90
2018-09-24T23:05:16.680Z,99.90
2018-09-24T23:07:49.892Z,99.90
2018-09-24T23:10:23.123Z,99.90
2018-09-24T23:12:56.423Z,99.90
2018-09-24T23:15:29.623Z,99.90
2018-09-24T23:18:02.899Z,99.90
2018-09-24T23:20:36.002Z,99.90
2018-09-24T23:23:09.262Z,99.90
2018-09-24T23:25:42.413Z,99.90
2018-09-24T23:28:15.729Z,99.90
2018-09-24T23:30:48.857Z,99.90
2018-09-24T23:33:22.174Z,99.90
2018-09-24T23:35:55.313Z,99.90
2018-09-24T23:38:28.561Z,99.90
2018-09-24T23:41:01.779Z,99.90
2018-09-24T23:43:35.013Z,99.90
2018-09-24T23:46:08.253Z,99.90
2018-09-24T23:48:41.495Z,99.90
2018-09-24T23:51:14.655Z,99.90
2018-09-24T23:53:47.906Z,99.90
2018-09-24T23:56:21.147Z,99.90
2018-09-24T23:58:54.389Z,99.90
